createdAt,value
2019-03-20T00:01:53.852Z,5.43
2019-03-20T00:05:58.062Z,5.38
2019-03-20T00:10:02.578Z,5.33
2019-03-20T00:14:06.874Z,5.28
2019-03-20T00:18:11.097Z,5.20
2019-03-20T00:22:15.379Z,5.19
2019-03-20T00:26:19.613Z,5.20
2019-03-20T00:30:23.816Z,5.19
2019-03-20T00:34:27.982Z,5.18
2019-03-20T00:38:32.211Z,5.14
2019-03-20T00:42:36.623Z,5.07
2019-03-20T00:46:40.848Z,5.03
2019-03-20T00:50:45.091Z,5.01
2019-03-20T00:54:49.553Z,4.98
2019-03-20T00:58:53.830Z,4.95
2019-03-20T01:02:58.077Z,4.91
2019-03-20T01:07:02.250Z,4.84
2019-03-20T01:11:06.473Z,4.81
2019-03-20T01:15:10.658Z,4.79
2019-03-20T01:19:15.011Z,4.81
2019-03-20T01:23:19.519Z,4.81
2019-03-20T01:27:23.748Z,4.82
2019-03-20T01:31:28.017Z,4.80
2019-03-20T01:35:32.207Z,4.79
2019-03-20T01:39:36.785Z,4.78
2019-03-20T01:43:40.998Z,4.76
2019-03-20T01:47:45.213Z,4.70
2019-03-20T01:51:49.423Z,4.65
2019-03-20T01:55:53.676Z,4.60
2019-03-20T01:59:58.004Z,4.56
2019-03-20T02:04:02.544Z,4.52
2019-03-20T02:08:06.927Z,4.52
2019-03-20T02:12:11.244Z,4.50
2019-03-20T02:16:15.405Z,4.45
2019-03-20T02:20:20.067Z,4.41
2019-03-20T02:24:24.237Z,4.38
2019-03-20T02:28:28.445Z,4.35
2019-03-20T02:32:32.619Z,4.37
2019-03-20T02:36:36.859Z,4.39
2019-03-20T02:40:41.069Z,4.40
2019-03-20T02:44:45.282Z,4.44
2019-03-20T02:48:49.491Z,4.45
2019-03-20T02:52:53.689Z,4.42
2019-03-20T02:56:57.922Z,4.36
2019-03-20T03:01:02.134Z,4.31
2019-03-20T03:05:07.249Z,4.25
2019-03-20T03:09:11.464Z,4.25
2019-03-20T03:13:15.666Z,4.26
2019-03-20T03:17:19.948Z,4.24
2019-03-20T03:21:24.151Z,4.22
2019-03-20T03:25:28.421Z,4.18
2019-03-20T03:29:32.761Z,4.11
2019-03-20T03:33:36.991Z,4.06
2019-03-20T03:37:41.159Z,4.06
2019-03-20T03:41:45.378Z,4.02
2019-03-20T03:45:49.948Z,4.00
2019-03-20T03:49:54.314Z,3.93
2019-03-20T03:53:58.463Z,3.91
2019-03-20T03:58:02.702Z,3.91
2019-03-20T04:02:07.084Z,3.88
2019-03-20T04:06:11.306Z,3.86
2019-03-20T04:10:15.726Z,3.83
2019-03-20T04:14:20.233Z,3.83
2019-03-20T04:18:24.443Z,3.81
2019-03-20T04:22:28.612Z,3.79
2019-03-20T04:26:32.836Z,3.78
2019-03-20T04:30:37.073Z,3.78
2019-03-20T04:34:41.259Z,3.79
2019-03-20T04:38:45.484Z,3.81
2019-03-20T04:42:49.812Z,3.85
2019-03-20T04:46:54.064Z,3.85
2019-03-20T04:50:58.247Z,3.91
2019-03-20T04:55:02.464Z,3.91
2019-03-20T04:59:06.665Z,3.92
2019-03-20T05:03:10.988Z,3.95
2019-03-20T05:07:15.234Z,3.99
2019-03-20T05:11:19.434Z,4.01
2019-03-20T05:15:23.584Z,4.00
2019-03-20T05:19:28.033Z,4.02
2019-03-20T05:23:32.235Z,4.02
2019-03-20T05:27:36.465Z,4.08
2019-03-20T05:31:40.680Z,4.13
2019-03-20T05:35:44.958Z,4.19
2019-03-20T05:39:49.302Z,4.26
2019-03-20T05:43:53.577Z,4.36
2019-03-20T05:47:57.816Z,4.40
2019-03-20T05:52:02.083Z,4.44
2019-03-20T05:56:06.298Z,4.50
2019-03-20T06:00:12.584Z,4.49
2019-03-20T06:04:16.851Z,4.49
2019-03-20T06:08:21.148Z,4.53
2019-03-20T06:12:25.364Z,4.53
2019-03-20T06:16:29.611Z,4.52
2019-03-20T06:20:34.093Z,4.56
2019-03-20T06:24:38.432Z,4.58
2019-03-20T06:28:42.726Z,4.62
2019-03-20T06:32:46.922Z,4.65
2019-03-20T06:36:51.221Z,4.71
2019-03-20T06:40:55.440Z,4.78
2019-03-20T06:44:59.700Z,4.86
2019-03-20T06:49:04.076Z,4.92
2019-03-20T06:53:08.288Z,5.00
2019-03-20T06:57:12.520Z,5.09
2019-03-20T07:01:24.857Z,5.15
2019-03-20T07:05:59.871Z,5.20
2019-03-20T07:10:32.521Z,5.26
2019-03-20T07:14:36.714Z,5.33
2019-03-20T07:18:40.960Z,5.43
2019-03-20T07:22:45.635Z,5.46
2019-03-20T07:26:49.790Z,5.51
2019-03-20T07:30:54.049Z,5.64
2019-03-20T07:34:58.275Z,5.68
2019-03-20T07:39:02.494Z,5.77
2019-03-20T07:43:09.181Z,5.86
2019-03-20T07:47:12.627Z,5.99
2019-03-20T07:51:16.854Z,6.08
2019-03-20T07:55:21.440Z,6.15
2019-03-20T07:59:26.059Z,6.26
2019-03-20T08:03:30.275Z,6.29
2019-03-20T08:07:34.489Z,6.32
2019-03-20T08:11:38.719Z,6.39
2019-03-20T08:15:43.250Z,6.47
2019-03-20T08:19:47.473Z,6.59
2019-03-20T08:23:51.645Z,6.63
2019-03-20T08:27:55.845Z,6.72
2019-03-20T08:32:00.051Z,6.89
2019-03-20T08:36:04.535Z,7.04
2019-03-20T08:40:09.873Z,7.13
2019-03-20T08:44:14.098Z,7.20
2019-03-20T08:48:27.218Z,7.24
2019-03-20T08:52:31.473Z,7.19
2019-03-20T08:56:35.750Z,7.23
2019-03-20T09:00:40.084Z,7.35
2019-03-20T09:04:44.319Z,7.30
2019-03-20T09:08:48.483Z,7.45
2019-03-20T09:12:52.716Z,7.47
2019-03-20T09:16:56.955Z,7.58
2019-03-20T09:21:01.175Z,7.69
2019-03-20T09:25:06.451Z,7.83
2019-03-20T09:29:18.667Z,8.00
2019-03-20T09:33:16.746Z,8.13
2019-03-20T09:37:21.561Z,8.13
2019-03-20T09:41:25.799Z,8.18
2019-03-20T09:45:30.016Z,8.31
2019-03-20T09:49:34.294Z,8.41
2019-03-20T09:53:38.513Z,8.54
2019-03-20T09:57:42.794Z,8.50
2019-03-20T10:01:47.134Z,8.64
2019-03-20T10:05:51.333Z,8.70
2019-03-20T10:09:55.553Z,8.78
2019-03-20T10:13:59.857Z,8.82
2019-03-20T10:18:04.345Z,8.84
2019-03-20T10:22:08.508Z,8.81
2019-03-20T10:26:12.927Z,8.69
2019-03-20T10:30:19.425Z,8.69
2019-03-20T10:34:23.710Z,8.72
2019-03-20T10:38:28.021Z,8.65
2019-03-20T10:42:32.249Z,8.67
2019-03-20T10:46:36.462Z,8.65
2019-03-20T10:50:40.724Z,8.70
2019-03-20T10:54:44.991Z,8.71
2019-03-20T10:58:49.220Z,8.82
2019-03-20T11:02:53.822Z,8.88
2019-03-20T11:06:58.114Z,9.00
2019-03-20T11:11:02.690Z,9.01
2019-03-20T11:15:08.672Z,9.00
2019-03-20T11:19:13.414Z,9.06
2019-03-20T11:23:17.619Z,9.10
2019-03-20T11:27:21.886Z,9.18
2019-03-20T11:31:26.110Z,9.18
2019-03-20T11:35:30.876Z,9.16
2019-03-20T11:39:35.244Z,9.19
2019-03-20T11:43:39.479Z,9.11
2019-03-20T11:47:43.764Z,9.09
2019-03-20T11:51:48.058Z,9.07
2019-03-20T11:55:52.283Z,9.14
2019-03-20T11:59:56.534Z,9.19
2019-03-20T12:04:01.410Z,9.24
2019-03-20T12:08:05.675Z,9.29
2019-03-20T12:12:09.997Z,9.36
2019-03-20T12:16:14.249Z,9.45
2019-03-20T12:20:19.303Z,9.52
2019-03-20T12:24:23.546Z,9.58
2019-03-20T12:28:27.778Z,9.55
2019-03-20T12:32:32.042Z,9.55
2019-03-20T12:36:36.230Z,9.60
2019-03-20T12:40:40.767Z,9.59
2019-03-20T12:44:45.024Z,9.67
2019-03-20T12:48:49.232Z,9.68
2019-03-20T12:52:53.434Z,9.75
2019-03-20T12:56:57.712Z,9.80
2019-03-20T13:01:01.954Z,9.84
2019-03-20T13:05:07.213Z,9.88
2019-03-20T13:09:11.449Z,9.92
2019-03-20T13:13:15.765Z,9.99
2019-03-20T13:17:19.998Z,9.96
2019-03-20T13:21:25.632Z,9.98
2019-03-20T13:25:29.838Z,9.92
2019-03-20T13:29:34.099Z,9.84
2019-03-20T13:33:39.114Z,9.78
2019-03-20T13:37:43.333Z,9.76
2019-03-20T13:41:47.650Z,9.80
2019-03-20T13:45:51.846Z,9.89
2019-03-20T13:49:56.071Z,9.82
2019-03-20T13:54:00.430Z,9.77
2019-03-20T13:58:04.645Z,9.78
2019-03-20T14:02:09.102Z,9.79
2019-03-20T14:06:14.470Z,9.82
2019-03-20T14:10:25.197Z,9.80
2019-03-20T14:14:25.754Z,9.86
2019-03-20T14:18:30.153Z,9.90
2019-03-20T14:22:34.403Z,9.95
2019-03-20T14:26:38.770Z,9.87
2019-03-20T14:30:43.189Z,9.81
2019-03-20T14:34:47.823Z,9.75
2019-03-20T14:38:52.115Z,9.72
2019-03-20T14:42:56.354Z,9.73
2019-03-20T14:47:00.881Z,9.71
2019-03-20T14:51:05.109Z,9.69
2019-03-20T14:55:10.368Z,9.68
2019-03-20T14:59:14.696Z,9.69
2019-03-20T15:03:18.877Z,9.64
2019-03-20T15:07:23.151Z,9.61
2019-03-20T15:11:27.849Z,9.57
2019-03-20T15:15:55.730Z,9.56
2019-03-20T15:20:00.311Z,9.53
2019-03-20T15:24:04.564Z,9.56
2019-03-20T15:28:08.885Z,9.59
2019-03-20T15:32:13.283Z,9.64
2019-03-20T15:36:17.555Z,9.66
2019-03-20T15:40:21.932Z,9.62
2019-03-20T15:44:26.165Z,9.59
2019-03-20T15:48:30.370Z,9.56
2019-03-20T15:52:34.606Z,9.52
2019-03-20T15:56:39.050Z,9.49
2019-03-20T16:00:43.383Z,9.42
2019-03-20T16:04:47.560Z,9.37
2019-03-20T16:08:55.048Z,9.41
2019-03-20T16:12:59.085Z,9.39
2019-03-20T16:17:03.469Z,9.41
2019-03-20T16:21:07.858Z,9.37
2019-03-20T16:25:13.046Z,9.39
2019-03-20T16:29:17.262Z,9.41
2019-03-20T16:33:21.518Z,9.38
2019-03-20T16:37:25.815Z,9.37
2019-03-20T16:41:30.018Z,9.34
2019-03-20T16:45:35.467Z,9.35
2019-03-20T16:49:39.717Z,9.41
2019-03-20T16:53:43.972Z,9.46
2019-03-20T16:57:48.190Z,9.42
2019-03-20T17:01:52.430Z,9.33
2019-03-20T17:05:56.822Z,9.26
2019-03-20T17:10:01.007Z,9.22
2019-03-20T17:14:05.587Z,9.16
2019-03-20T17:18:10.155Z,9.13
2019-03-20T17:22:14.617Z,9.09
2019-03-20T17:26:20.081Z,9.10
2019-03-20T17:30:35.390Z,9.09
2019-03-20T17:34:39.919Z,9.10
2019-03-20T17:38:44.489Z,9.15
2019-03-20T17:42:48.797Z,9.18
2019-03-20T17:46:53.100Z,9.19
2019-03-20T17:50:57.315Z,9.18
2019-03-20T17:55:01.567Z,9.18
2019-03-20T17:59:06.200Z,9.11
2019-03-20T18:03:10.744Z,8.99
2019-03-20T18:07:14.970Z,8.89
2019-03-20T18:11:19.214Z,8.78
2019-03-20T18:15:23.490Z,8.71
2019-03-20T18:19:27.754Z,8.69
2019-03-20T18:23:31.991Z,8.68
2019-03-20T18:27:36.221Z,8.66
2019-03-20T18:31:45.888Z,8.65
2019-03-20T18:35:46.484Z,8.60
2019-03-20T18:39:51.029Z,8.48
2019-03-20T18:43:55.297Z,8.42
2019-03-20T18:47:59.517Z,8.36
2019-03-20T18:52:03.715Z,8.28
2019-03-20T18:56:08.137Z,8.23
2019-03-20T19:00:15.436Z,8.20
2019-03-20T19:04:19.607Z,8.14
2019-03-20T19:08:23.838Z,8.09
2019-03-20T19:12:28.232Z,8.06
2019-03-20T19:16:32.459Z,7.97
2019-03-20T19:20:36.821Z,7.96
2019-03-20T19:24:41.189Z,7.89
2019-03-20T19:28:45.694Z,7.78
2019-03-20T19:32:49.956Z,7.69
2019-03-20T19:36:54.159Z,7.61
2019-03-20T19:40:58.827Z,7.49
2019-03-20T19:45:03.355Z,7.41
2019-03-20T19:49:08.007Z,7.34
2019-03-20T19:53:12.319Z,7.27
2019-03-20T19:57:16.653Z,7.21
2019-03-20T20:01:20.942Z,7.10
2019-03-20T20:05:25.401Z,7.03
2019-03-20T20:09:29.623Z,6.99
2019-03-20T20:13:33.866Z,6.96
2019-03-20T20:17:38.562Z,6.89
2019-03-20T20:21:42.967Z,6.82
2019-03-20T20:25:47.393Z,6.74
2019-03-20T20:29:51.817Z,6.67
2019-03-20T20:33:56.167Z,6.62
2019-03-20T20:38:00.621Z,6.55
2019-03-20T20:42:05.210Z,6.48
2019-03-20T20:46:09.454Z,6.42
2019-03-20T20:50:14.295Z,6.37
2019-03-20T20:54:18.602Z,6.32
2019-03-20T20:58:22.824Z,6.25
2019-03-20T21:02:27.698Z,6.21
2019-03-20T21:06:32.093Z,6.20
2019-03-20T21:10:36.678Z,6.18
2019-03-20T21:14:41.047Z,6.15
2019-03-20T21:19:22.447Z,6.12
2019-03-20T21:24:12.750Z,6.10
2019-03-20T21:28:59.043Z,6.07
2019-03-20T21:33:04.958Z,6.01
2019-03-20T21:37:45.015Z,5.96
2019-03-20T21:42:39.917Z,5.94
2019-03-20T21:47:33.501Z,5.86
2019-03-20T21:51:39.583Z,5.76
2019-03-20T21:56:20.998Z,5.61
2019-03-20T22:01:09.366Z,5.49
2019-03-20T22:05:35.039Z,5.39
2019-03-20T22:10:21.404Z,5.42
2019-03-20T22:14:26.296Z,5.46
2019-03-20T22:18:59.473Z,5.42
2019-03-20T22:23:28.096Z,5.36
2019-03-20T22:27:53.384Z,5.29
2019-03-20T22:32:53.736Z,5.23
2019-03-20T22:36:58.615Z,5.21
2019-03-20T22:41:40.251Z,5.16
2019-03-20T22:46:19.792Z,5.15
2019-03-20T22:50:38.685Z,5.15
2019-03-20T22:55:38.801Z,5.11
2019-03-20T22:59:43.601Z,5.11
2019-03-20T23:03:52.995Z,5.13
2019-03-20T23:07:57.968Z,5.12
2019-03-20T23:12:05.288Z,5.04
2019-03-20T23:16:11.342Z,4.96
2019-03-20T23:20:18.912Z,4.88
2019-03-20T23:24:23.634Z,4.83
2019-03-20T23:28:28.402Z,4.71
2019-03-20T23:32:33.335Z,4.67
2019-03-20T23:36:38.177Z,4.62
2019-03-20T23:40:43.000Z,4.60
2019-03-20T23:44:47.784Z,4.55
2019-03-20T23:48:59.638Z,4.52
2019-03-20T23:53:05.322Z,4.47
2019-03-20T23:57:10.208Z,4.47
